createdAt,value
2023-01-09T00:02:01.041Z,80.00
2023-01-09T00:04:27.529Z,78.61
2023-01-09T00:06:54.405Z,77.03
2023-01-09T00:09:22.125Z,78.80
2023-01-09T00:11:49.267Z,77.14
2023-01-09T00:14:18.992Z,77.58
2023-01-09T00:16:45.623Z,78.00
2023-01-09T00:19:12.272Z,78.31
2023-01-09T00:21:38.777Z,78.54
2023-01-09T00:24:05.768Z,78.46
2023-01-09T00:26:32.389Z,78.99
2023-01-09T00:28:59.094Z,78.13
2023-01-09T00:31:25.681Z,77.64
2023-01-09T00:33:56.343Z,79.33
2023-01-09T00:36:22.982Z,79.12
2023-01-09T00:38:50.386Z,78.01
2023-01-09T00:41:29.093Z,79.47
2023-01-09T00:43:58.627Z,77.81
2023-01-09T00:46:29.584Z,78.58
2023-01-09T00:48:56.167Z,78.10
2023-01-09T00:51:24.262Z,78.89
2023-01-09T00:53:51.120Z,78.11
2023-01-09T00:56:19.915Z,77.70
2023-01-09T00:58:47.446Z,78.11
2023-01-09T01:01:14.226Z,79.37
2023-01-09T01:03:41.159Z,80.17
2023-01-09T01:06:26.227Z,79.31
2023-01-09T01:08:52.686Z,80.51
2023-01-09T01:11:19.145Z,80.64
2023-01-09T01:13:45.598Z,81.30
2023-01-09T01:16:13.445Z,80.87
2023-01-09T01:18:40.469Z,80.56
2023-01-09T01:21:08.251Z,80.62
2023-01-09T01:23:35.346Z,79.62
2023-01-09T01:26:13.767Z,81.07
2023-01-09T01:28:40.451Z,79.73
2023-01-09T01:31:07.555Z,79.68
2023-01-09T01:33:34.640Z,80.32
2023-01-09T01:36:02.771Z,81.08
2023-01-09T01:38:29.762Z,80.97
2023-01-09T01:40:56.830Z,80.14
2023-01-09T01:43:23.425Z,79.92
2023-01-09T01:45:49.977Z,79.82
2023-01-09T01:48:27.028Z,81.46
2023-01-09T01:51:01.030Z,80.38
2023-01-09T01:53:49.287Z,82.50
2023-01-09T01:56:19.699Z,81.03
2023-01-09T01:59:08.339Z,80.90
2023-01-09T02:01:36.455Z,81.08
2023-01-09T02:04:03.071Z,82.08
2023-01-09T02:06:30.561Z,81.89
2023-01-09T02:08:57.492Z,79.86
2023-01-09T02:11:24.134Z,79.68
2023-01-09T02:13:50.669Z,79.69
2023-01-09T02:16:48.072Z,80.42
2023-01-09T02:19:26.374Z,78.69
2023-01-09T02:22:33.043Z,80.08
2023-01-09T02:25:15.089Z,79.82
2023-01-09T02:28:03.715Z,79.92
2023-01-09T02:30:32.876Z,80.65
2023-01-09T02:33:18.266Z,81.12
2023-01-09T02:35:57.297Z,80.92
2023-01-09T02:38:29.359Z,82.24
2023-01-09T02:41:18.904Z,83.09
2023-01-09T02:43:45.376Z,81.83
2023-01-09T02:46:22.812Z,80.63
2023-01-09T02:48:53.019Z,81.25
2023-01-09T02:51:52.419Z,81.48
2023-01-09T02:54:34.229Z,81.46
2023-01-09T02:57:26.820Z,82.02
2023-01-09T03:00:22.908Z,82.37
2023-01-09T03:02:50.762Z,81.59
2023-01-09T03:05:35.621Z,81.13
2023-01-09T03:08:04.895Z,80.13
2023-01-09T03:10:51.812Z,82.08
2023-01-09T03:13:20.174Z,81.46
2023-01-09T03:15:49.729Z,80.39
2023-01-09T03:18:18.078Z,80.67
2023-01-09T03:20:44.838Z,80.46
2023-01-09T03:23:11.322Z,81.40
2023-01-09T03:25:37.766Z,82.05
2023-01-09T03:28:09.678Z,81.74
2023-01-09T03:30:36.709Z,80.22
2023-01-09T03:33:03.324Z,81.67
2023-01-09T03:35:29.813Z,80.67
2023-01-09T03:37:56.287Z,81.76
2023-01-09T03:40:22.712Z,81.49
2023-01-09T03:42:49.302Z,82.40
2023-01-09T03:45:16.343Z,81.17
2023-01-09T03:47:42.859Z,79.88
2023-01-09T03:50:09.877Z,80.22
2023-01-09T03:52:36.458Z,81.60
2023-01-09T03:55:03.042Z,81.59
2023-01-09T03:57:29.515Z,80.63
2023-01-09T03:59:56.021Z,79.22
2023-01-09T04:02:22.568Z,80.01
2023-01-09T04:04:49.065Z,80.28
2023-01-09T04:07:15.576Z,82.13
2023-01-09T04:09:42.064Z,84.36
2023-01-09T04:12:08.528Z,85.35
2023-01-09T04:14:35.082Z,83.70
2023-01-09T04:17:01.609Z,83.70
2023-01-09T04:19:28.087Z,83.88
2023-01-09T04:21:54.533Z,84.03
2023-01-09T04:24:21.045Z,82.92
2023-01-09T04:26:47.517Z,84.01
2023-01-09T04:29:13.979Z,84.23
2023-01-09T04:31:40.461Z,81.71
2023-01-09T04:34:06.932Z,82.05
2023-01-09T04:36:35.973Z,81.39
2023-01-09T04:39:03.169Z,81.12
2023-01-09T04:41:48.179Z,81.34
2023-01-09T04:44:15.768Z,81.09
2023-01-09T04:46:42.219Z,82.07
2023-01-09T04:49:08.681Z,81.11
2023-01-09T04:51:35.175Z,81.29
2023-01-09T04:54:01.660Z,81.71
2023-01-09T04:56:28.245Z,81.96
2023-01-09T04:58:54.717Z,80.62
2023-01-09T05:01:21.271Z,80.36
2023-01-09T05:03:47.781Z,79.96
2023-01-09T05:06:14.250Z,81.77
2023-01-09T05:08:40.829Z,80.85
2023-01-09T05:11:07.314Z,80.43
2023-01-09T05:13:34.645Z,81.37
2023-01-09T05:16:01.176Z,81.43
2023-01-09T05:18:27.888Z,80.98
2023-01-09T05:20:54.354Z,80.04
2023-01-09T05:23:20.838Z,79.40
2023-01-09T05:25:47.322Z,80.23
2023-01-09T05:28:13.844Z,80.47
2023-01-09T05:30:41.046Z,79.47
2023-01-09T05:33:07.797Z,79.43
2023-01-09T05:35:34.359Z,78.79
2023-01-09T05:38:00.866Z,79.21
2023-01-09T05:40:32.334Z,77.76
2023-01-09T05:43:05.098Z,78.56
2023-01-09T05:45:31.651Z,78.50
2023-01-09T05:47:58.187Z,77.80
2023-01-09T05:50:24.739Z,77.63
2023-01-09T05:52:51.177Z,77.43
2023-01-09T05:55:17.730Z,78.79
2023-01-09T05:57:44.189Z,80.39
2023-01-09T06:00:11.251Z,79.66
2023-01-09T06:02:37.866Z,79.69
2023-01-09T06:05:04.770Z,79.36
2023-01-09T06:07:31.272Z,78.89
2023-01-09T06:09:57.738Z,80.39
2023-01-09T06:12:24.206Z,80.38
2023-01-09T06:14:50.678Z,79.50
2023-01-09T06:17:17.174Z,80.11
2023-01-09T06:19:43.720Z,82.52
2023-01-09T06:22:10.243Z,84.12
2023-01-09T06:24:36.740Z,83.31
2023-01-09T06:27:03.344Z,82.33
2023-01-09T06:29:29.808Z,80.66
2023-01-09T06:31:56.251Z,80.42
2023-01-09T06:34:22.762Z,81.06
2023-01-09T06:36:49.241Z,80.99
2023-01-09T06:39:15.695Z,80.88
2023-01-09T06:41:42.251Z,81.45
2023-01-09T06:44:08.728Z,81.55
2023-01-09T06:46:35.219Z,80.04
2023-01-09T06:49:01.694Z,79.94
2023-01-09T06:51:28.164Z,81.01
2023-01-09T06:53:54.629Z,79.40
2023-01-09T06:56:21.173Z,78.96
2023-01-09T06:58:47.710Z,79.71
2023-01-09T07:01:14.293Z,79.22
2023-01-09T07:03:40.816Z,78.50
2023-01-09T07:06:07.409Z,78.13
2023-01-09T07:08:34.444Z,77.88
2023-01-09T07:11:00.949Z,77.80
2023-01-09T07:13:27.431Z,77.93
2023-01-09T07:15:53.935Z,78.07
2023-01-09T07:18:20.491Z,77.94
2023-01-09T07:20:47.033Z,77.73
2023-01-09T07:23:13.827Z,78.41
2023-01-09T07:25:42.147Z,78.27
2023-01-09T07:28:08.610Z,77.59
2023-01-09T07:30:35.119Z,77.80
2023-01-09T07:33:03.824Z,77.68
2023-01-09T07:35:30.511Z,77.50
2023-01-09T07:37:56.970Z,78.37
2023-01-09T07:40:23.634Z,77.95
2023-01-09T07:42:52.728Z,78.57
2023-01-09T07:45:19.753Z,79.32
2023-01-09T07:47:46.386Z,78.35
2023-01-09T07:50:13.100Z,78.92
2023-01-09T07:52:39.607Z,78.80
2023-01-09T07:55:06.708Z,79.13
2023-01-09T07:57:33.177Z,78.74
2023-01-09T08:00:01.096Z,79.19
2023-01-09T08:02:27.680Z,80.76
2023-01-09T08:04:54.151Z,81.35
2023-01-09T08:07:20.641Z,80.69
2023-01-09T08:09:47.084Z,80.00
2023-01-09T08:12:13.553Z,79.93
2023-01-09T08:14:39.990Z,81.43
2023-01-09T08:17:06.485Z,80.17
2023-01-09T08:19:32.941Z,80.48
2023-01-09T08:21:59.509Z,82.14
2023-01-09T08:24:25.984Z,80.94
2023-01-09T08:26:52.509Z,81.66
2023-01-09T08:29:18.958Z,80.27
2023-01-09T08:31:45.526Z,80.43
2023-01-09T08:34:12.007Z,80.66
2023-01-09T08:36:38.497Z,81.61
2023-01-09T08:39:04.974Z,82.78
2023-01-09T08:41:50.088Z,83.26
2023-01-09T08:44:35.212Z,83.50
2023-01-09T08:47:07.776Z,84.14
2023-01-09T08:49:36.422Z,80.95
2023-01-09T08:52:04.208Z,81.76
2023-01-09T08:54:31.359Z,81.93
2023-01-09T08:56:58.092Z,80.16
2023-01-09T08:59:24.604Z,81.16
2023-01-09T09:01:51.106Z,81.69
2023-01-09T09:04:17.640Z,80.89
2023-01-09T09:06:44.101Z,83.48
2023-01-09T09:09:11.312Z,82.90
2023-01-09T09:11:37.793Z,81.51
2023-01-09T09:14:24.978Z,82.10
2023-01-09T09:16:52.469Z,82.40
2023-01-09T09:19:19.031Z,83.37
2023-01-09T09:21:45.598Z,80.93
2023-01-09T09:24:12.067Z,81.75
2023-01-09T09:26:38.728Z,81.51
2023-01-09T09:29:05.211Z,82.44
2023-01-09T09:31:31.741Z,80.16
2023-01-09T09:33:58.814Z,80.54
2023-01-09T09:36:25.307Z,82.61
2023-01-09T09:38:51.782Z,82.24
2023-01-09T09:41:43.710Z,83.36
2023-01-09T09:44:52.748Z,84.09
2023-01-09T09:47:51.908Z,81.54
2023-01-09T09:50:21.445Z,81.01
2023-01-09T09:53:00.186Z,83.29
2023-01-09T09:55:32.210Z,82.92
2023-01-09T09:58:01.509Z,80.77
2023-01-09T10:00:28.145Z,82.95
2023-01-09T10:03:06.707Z,81.75
2023-01-09T10:05:45.517Z,81.62
2023-01-09T10:08:19.811Z,81.64
2023-01-09T10:10:53.899Z,83.70
2023-01-09T10:13:42.518Z,81.68
2023-01-09T10:16:11.950Z,82.01
2023-01-09T10:18:57.389Z,81.47
2023-01-09T10:21:42.561Z,83.34
2023-01-09T10:24:20.972Z,82.28
2023-01-09T10:26:50.842Z,81.63
2023-01-09T10:29:32.681Z,81.29
2023-01-09T10:32:21.128Z,82.59
2023-01-09T10:35:08.118Z,80.18
2023-01-09T10:37:38.279Z,81.51
2023-01-09T10:40:17.688Z,82.31
2023-01-09T10:43:07.372Z,80.40
2023-01-09T10:45:41.415Z,82.21
2023-01-09T10:48:24.599Z,82.12
2023-01-09T10:50:51.851Z,83.62
2023-01-09T10:53:48.968Z,81.98
2023-01-09T10:56:21.491Z,83.81
2023-01-09T10:58:49.322Z,82.08
2023-01-09T11:01:18.584Z,83.43
2023-01-09T11:03:45.127Z,82.94
2023-01-09T11:06:21.189Z,81.08
2023-01-09T11:08:49.719Z,82.78
2023-01-09T11:11:32.842Z,82.09
2023-01-09T11:14:18.351Z,80.78
2023-01-09T11:16:56.791Z,83.45
2023-01-09T11:19:24.723Z,80.93
2023-01-09T11:22:09.695Z,80.01
2023-01-09T11:24:36.226Z,79.93
2023-01-09T11:27:24.142Z,80.84
2023-01-09T11:30:09.503Z,80.68
2023-01-09T11:32:36.387Z,80.61
2023-01-09T11:35:07.235Z,80.25
2023-01-09T11:37:34.104Z,80.93
2023-01-09T11:40:01.059Z,81.85
2023-01-09T11:42:47.919Z,82.45
2023-01-09T11:45:21.580Z,81.08
2023-01-09T11:47:48.099Z,81.23
2023-01-09T11:50:25.808Z,80.95
2023-01-09T11:53:13.939Z,80.23
2023-01-09T11:55:42.945Z,81.01
2023-01-09T11:58:18.216Z,78.90
2023-01-09T12:00:55.922Z,81.38
2023-01-09T12:03:50.152Z,81.52
2023-01-09T12:06:54.916Z,80.17
2023-01-09T12:09:31.428Z,81.90
2023-01-09T12:12:35.340Z,79.54
2023-01-09T12:15:16.936Z,78.89
2023-01-09T12:18:11.332Z,80.37
2023-01-09T12:21:02.938Z,80.19
2023-01-09T12:24:00.975Z,79.06
2023-01-09T12:26:39.069Z,78.60
2023-01-09T12:29:47.703Z,78.50
2023-01-09T12:32:32.382Z,79.17
2023-01-09T12:35:11.637Z,78.25
2023-01-09T12:37:59.877Z,79.34
2023-01-09T12:41:00.057Z,79.30
2023-01-09T12:43:35.571Z,79.63
2023-01-09T12:46:15.560Z,78.49
2023-01-09T12:48:42.092Z,78.56
2023-01-09T12:51:14.672Z,79.59
2023-01-09T12:53:46.206Z,78.57
2023-01-09T12:56:16.987Z,79.22
2023-01-09T12:58:50.867Z,78.38
2023-01-09T13:01:24.810Z,77.14
2023-01-09T13:04:28.440Z,77.98
2023-01-09T13:06:58.884Z,78.23
2023-01-09T13:09:46.263Z,77.67
2023-01-09T13:12:14.871Z,77.78
2023-01-09T13:14:49.304Z,76.30
2023-01-09T13:17:23.774Z,77.45
2023-01-09T13:19:50.339Z,77.14
2023-01-09T13:22:18.156Z,75.91
2023-01-09T13:25:07.127Z,76.63
2023-01-09T13:27:39.355Z,76.42
2023-01-09T13:30:47.852Z,76.64
2023-01-09T13:33:23.060Z,76.93
2023-01-09T13:35:54.371Z,76.05
2023-01-09T13:38:23.673Z,73.38
2023-01-09T13:41:22.355Z,75.67
2023-01-09T13:43:57.215Z,75.11
2023-01-09T13:46:33.336Z,75.32
2023-01-09T13:48:59.877Z,75.22
2023-01-09T13:51:41.694Z,74.56
2023-01-09T13:54:09.995Z,73.94
2023-01-09T13:57:20.418Z,73.16
2023-01-09T13:59:48.461Z,74.63
2023-01-09T14:02:33.728Z,73.31
2023-01-09T14:05:01.022Z,74.40
2023-01-09T14:07:29.208Z,73.47
2023-01-09T14:10:00.483Z,72.14
2023-01-09T14:12:29.227Z,71.76
2023-01-09T14:14:58.373Z,73.29
2023-01-09T14:17:32.544Z,73.01
2023-01-09T14:20:01.429Z,72.94
2023-01-09T14:22:42.375Z,72.90
2023-01-09T14:27:59.916Z,72.73
2023-01-09T14:30:26.387Z,71.94
2023-01-09T14:33:18.508Z,72.39
2023-01-09T14:36:06.784Z,73.85
2023-01-09T14:38:52.512Z,73.11
2023-01-09T14:41:43.519Z,73.45
2023-01-09T14:44:24.241Z,73.23
2023-01-09T14:46:52.627Z,72.67
2023-01-09T14:49:33.875Z,72.05
2023-01-09T14:52:10.604Z,72.41
2023-01-09T14:54:42.190Z,72.52
2023-01-09T14:57:24.425Z,71.65
2023-01-09T15:00:01.122Z,71.87
2023-01-09T15:02:31.747Z,71.78
2023-01-09T15:05:02.173Z,71.65
2023-01-09T15:07:34.224Z,71.68
2023-01-09T15:10:02.369Z,71.68
2023-01-09T15:12:29.025Z,71.53
2023-01-09T15:14:58.170Z,72.17
2023-01-09T15:17:30.924Z,72.99
2023-01-09T15:19:59.826Z,72.53
2023-01-09T15:22:32.536Z,72.43
2023-01-09T15:24:59.969Z,73.42
2023-01-09T15:27:26.449Z,73.11
2023-01-09T15:29:53.040Z,73.04
2023-01-09T15:32:24.152Z,72.13
2023-01-09T15:34:50.838Z,72.49
2023-01-09T15:37:33.869Z,73.32
2023-01-09T15:40:02.036Z,72.83
2023-01-09T15:42:50.142Z,72.32
2023-01-09T15:45:24.203Z,72.14
2023-01-09T15:47:50.699Z,71.86
2023-01-09T15:50:19.083Z,72.18
2023-01-09T15:52:45.598Z,71.93
2023-01-09T15:55:36.869Z,72.27
2023-01-09T15:58:05.108Z,71.71
2023-01-09T16:00:41.988Z,72.11
2023-01-09T16:03:16.510Z,72.68
2023-01-09T16:05:45.506Z,73.11
2023-01-09T16:08:24.225Z,72.98
2023-01-09T16:10:53.257Z,74.03
2023-01-09T16:13:21.735Z,73.84
2023-01-09T16:15:48.562Z,73.42
2023-01-09T16:18:17.933Z,72.69
2023-01-09T16:20:45.206Z,71.96
2023-01-09T16:23:31.592Z,72.74
2023-01-09T16:26:12.579Z,72.50
2023-01-09T16:28:41.012Z,73.01
2023-01-09T16:31:20.970Z,74.29
2023-01-09T16:33:53.358Z,73.69
2023-01-09T16:36:21.632Z,73.73
2023-01-09T16:38:48.171Z,73.00
2023-01-09T16:41:40.057Z,73.08
2023-01-09T16:44:11.755Z,73.91
2023-01-09T16:46:45.698Z,73.66
2023-01-09T16:49:24.147Z,73.30
2023-01-09T16:51:51.557Z,74.05
2023-01-09T16:54:18.189Z,73.72
2023-01-09T16:56:49.043Z,73.21
2023-01-09T16:59:20.687Z,73.50
2023-01-09T17:01:51.588Z,73.77
2023-01-09T17:04:20.131Z,74.34
2023-01-09T17:06:48.819Z,74.19
2023-01-09T17:09:17.424Z,74.33
2023-01-09T17:11:44.426Z,75.03
2023-01-09T17:14:12.946Z,75.36
2023-01-09T17:16:41.592Z,76.43
2023-01-09T17:19:15.324Z,75.68
2023-01-09T17:21:41.936Z,76.05
2023-01-09T17:24:27.214Z,75.36
2023-01-09T17:27:15.798Z,75.18
2023-01-09T17:29:42.245Z,74.73
2023-01-09T17:32:14.336Z,75.79
2023-01-09T17:34:42.060Z,75.59
2023-01-09T17:37:13.885Z,74.95
2023-01-09T17:39:40.474Z,75.08
2023-01-09T17:42:06.957Z,74.63
2023-01-09T17:44:33.398Z,75.12
2023-01-09T17:46:59.865Z,74.84
2023-01-09T17:49:27.517Z,75.24
2023-01-09T17:51:54.043Z,75.78
2023-01-09T17:54:21.529Z,75.93
2023-01-09T17:56:51.020Z,76.53
2023-01-09T17:59:18.370Z,75.02
2023-01-09T18:01:47.052Z,75.39
2023-01-09T18:04:14.027Z,74.15
2023-01-09T18:06:40.516Z,74.00
2023-01-09T18:09:07.603Z,75.78
2023-01-09T18:11:34.408Z,74.30
2023-01-09T18:14:01.676Z,75.43
2023-01-09T18:16:28.783Z,75.25
2023-01-09T18:18:57.674Z,73.72
2023-01-09T18:21:25.358Z,73.89
2023-01-09T18:23:52.726Z,75.07
2023-01-09T18:26:22.138Z,73.80
2023-01-09T18:28:50.914Z,74.84
2023-01-09T18:31:22.134Z,74.70
2023-01-09T18:33:52.752Z,75.00
2023-01-09T18:36:29.205Z,74.82
2023-01-09T18:38:57.309Z,74.77
2023-01-09T18:41:24.540Z,75.01
2023-01-09T18:43:52.938Z,75.08
2023-01-09T18:46:24.105Z,74.90
2023-01-09T18:48:55.630Z,75.71
2023-01-09T18:51:22.866Z,74.92
2023-01-09T18:53:50.180Z,75.22
2023-01-09T18:56:17.388Z,75.50
2023-01-09T18:58:46.674Z,76.78
2023-01-09T19:01:14.868Z,77.66
2023-01-09T19:03:41.575Z,76.64
2023-01-09T19:06:08.260Z,77.46
2023-01-09T19:08:35.834Z,76.45
2023-01-09T19:11:02.825Z,77.05
2023-01-09T19:13:31.427Z,76.73
2023-01-09T19:15:58.830Z,75.84
2023-01-09T19:18:28.659Z,75.87
2023-01-09T19:20:55.808Z,77.42
2023-01-09T19:23:26.461Z,77.59
2023-01-09T19:25:54.286Z,75.72
2023-01-09T19:28:21.215Z,75.77
2023-01-09T19:30:48.070Z,76.23
2023-01-09T19:33:14.761Z,75.50
2023-01-09T19:35:41.253Z,75.42
2023-01-09T19:38:07.707Z,75.47
2023-01-09T19:40:35.930Z,74.69
2023-01-09T19:43:03.302Z,75.50
2023-01-09T19:45:32.430Z,76.41
2023-01-09T19:47:59.950Z,76.06
2023-01-09T19:50:26.506Z,77.56
2023-01-09T19:52:53.751Z,77.44
2023-01-09T19:55:20.409Z,78.85
2023-01-09T19:57:46.906Z,77.08
2023-01-09T20:00:14.627Z,76.16
2023-01-09T20:02:41.799Z,75.96
2023-01-09T20:05:09.014Z,75.78
2023-01-09T20:07:35.779Z,75.27
2023-01-09T20:10:02.336Z,74.69
2023-01-09T20:12:28.820Z,75.25
2023-01-09T20:14:56.445Z,74.55
2023-01-09T20:17:23.031Z,74.55
2023-01-09T20:19:51.801Z,75.19
2023-01-09T20:22:18.331Z,75.30
2023-01-09T20:24:44.842Z,76.65
2023-01-09T20:27:11.357Z,76.19
2023-01-09T20:29:38.307Z,76.08
2023-01-09T20:32:06.364Z,76.21
2023-01-09T20:34:32.808Z,76.52
2023-01-09T20:36:59.366Z,77.30
2023-01-09T20:39:26.431Z,76.34
2023-01-09T20:41:52.916Z,77.91
2023-01-09T20:44:19.506Z,79.15
2023-01-09T20:46:49.485Z,77.17
2023-01-09T20:49:18.299Z,78.50
2023-01-09T20:51:47.969Z,77.93
2023-01-09T20:54:16.328Z,77.72
2023-01-09T20:56:43.596Z,77.62
2023-01-09T20:59:17.099Z,79.64
2023-01-09T21:01:43.939Z,78.09
2023-01-09T21:04:14.062Z,77.29
2023-01-09T21:06:40.694Z,78.36
2023-01-09T21:09:07.326Z,79.66
2023-01-09T21:11:34.448Z,79.75
2023-01-09T21:14:00.935Z,79.03
2023-01-09T21:16:27.995Z,77.72
2023-01-09T21:18:55.278Z,78.09
2023-01-09T21:21:27.352Z,77.42
2023-01-09T21:23:57.521Z,77.97
2023-01-09T21:26:27.947Z,78.39
2023-01-09T21:28:55.978Z,78.03
2023-01-09T21:31:30.814Z,78.31
2023-01-09T21:33:57.664Z,78.71
2023-01-09T21:36:24.217Z,79.75
2023-01-09T21:38:53.641Z,79.31
2023-01-09T21:41:39.327Z,80.01
2023-01-09T21:44:24.881Z,79.44
2023-01-09T21:46:57.749Z,78.33
2023-01-09T21:49:25.895Z,80.09
2023-01-09T21:51:55.556Z,78.37
2023-01-09T21:54:25.953Z,78.64
2023-01-09T21:56:53.182Z,79.09
2023-01-09T21:59:20.078Z,79.35
2023-01-09T22:01:48.227Z,77.91
2023-01-09T22:04:15.894Z,78.72
2023-01-09T22:06:42.666Z,78.26
2023-01-09T22:09:10.166Z,77.43
2023-01-09T22:11:38.010Z,77.93
2023-01-09T22:14:05.516Z,77.61
2023-01-09T22:16:32.136Z,79.27
2023-01-09T22:18:58.706Z,79.48
2023-01-09T22:21:25.739Z,78.11
2023-01-09T22:23:52.269Z,78.66
2023-01-09T22:26:19.037Z,79.05
2023-01-09T22:28:46.075Z,78.15
2023-01-09T22:31:16.449Z,78.86
2023-01-09T22:33:43.336Z,78.61
2023-01-09T22:36:11.338Z,78.53
2023-01-09T22:38:38.159Z,79.51
2023-01-09T22:41:04.701Z,79.12
2023-01-09T22:43:31.601Z,78.03
2023-01-09T22:46:02.327Z,77.75
2023-01-09T22:48:32.255Z,78.52
2023-01-09T22:51:00.864Z,79.61
2023-01-09T22:53:28.251Z,78.76
2023-01-09T22:55:59.771Z,79.68
2023-01-09T22:58:27.904Z,78.31
2023-01-09T23:00:54.769Z,79.47
2023-01-09T23:03:21.589Z,79.58
2023-01-09T23:05:48.343Z,80.16
2023-01-09T23:08:15.728Z,79.96
2023-01-09T23:10:42.663Z,80.91
2023-01-09T23:13:09.193Z,80.73
2023-01-09T23:15:35.649Z,82.38
2023-01-09T23:18:02.118Z,80.38
2023-01-09T23:20:29.027Z,81.64
2023-01-09T23:22:57.652Z,81.65
2023-01-09T23:25:25.363Z,79.59
2023-01-09T23:27:51.804Z,81.25
2023-01-09T23:30:18.253Z,79.21
2023-01-09T23:32:44.919Z,78.43
2023-01-09T23:35:11.523Z,79.24
2023-01-09T23:37:38.181Z,79.12
2023-01-09T23:40:05.277Z,78.89
2023-01-09T23:42:50.466Z,78.89
2023-01-09T23:45:17.018Z,79.25
2023-01-09T23:47:43.454Z,79.07
2023-01-09T23:50:10.995Z,78.61
2023-01-09T23:52:37.734Z,78.24
2023-01-09T23:55:04.576Z,80.04
2023-01-09T23:57:31.025Z,78.85
2023-01-09T23:59:57.475Z,78.60
